F/V Aerouant Breizh — FIHX — position and weather

sailwx.info

Track history (hours):
 
Tides and Currents Weather Stations Pressure Air Temp Water Temp Dewpoint Dewpoint Depression Visibility Wind Speed Wind Dir Waves Ship Positions

F/V Aerouant Breizh

Last reported at 2018-Jul-20 03:36 UTC. Time now 2018-Jul-22 00:34 UTC.
Position N 48°06' W 004°19'.

Length 15 m.

Type: Fishing. MMSI: 228037600.

Date/timePositionNaut miles runAvg speedWind from/ knotsBaromVisibWave heightAir tempDewpointWater temp
2018-Jul-20 03:36N 48°06' W 004°19'0 2.9
2018-Jul-20 03:31N 48°06' W 004°19'4 7.4
2018-Jul-20 03:01N 48°10' W 004°20'3 6.3
2018-Jul-20 02:31N 48°09' W 004°25'5 9.3
2018-Jul-20 02:01N 48°07' W 004°31'2 3.2
2018-Jul-20 01:30N 48°06' W 004°33'2 4.1
2018-Jul-20 01:00N 48°06' W 004°36'510.2
2018-Jul-20 00:31N 48°11' W 004°35'3 6.8
2018-Jul-20 00:00N 48°13' W 004°38'3 6.9
2018-Jul-19 23:31N 48°14' W 004°43'4 8.5
2018-Jul-19 23:01N 48°16' W 004°49'1 2.2
2018-Jul-19 22:30N 48°17' W 004°50'4 7.4
2018-Jul-19 22:01N 48°15' W 004°45'3 6.9
2018-Jul-19 21:31N 48°14' W 004°40'1 1.2
2018-Jul-19 21:01N 48°14' W 004°39'4 7.0
2018-Jul-19 20:30N 48°11' W 004°36'4 9.0
2018-Jul-19 20:01N 48°09' W 004°30'5 9.1
2018-Jul-19 19:31N 48°08' W 004°24'3 6.5
2018-Jul-19 19:00N 48°06' W 004°19'0 0.0
2018-Jul-19 07:02N 48°06' W 004°19'0 0.0
2018-Jul-19 07:00N 48°06' W 004°19'0 0.0
2018-Jul-19 06:30N 48°06' W 004°19'0 0.0
2018-Jul-19 06:00N 48°06' W 004°19'0 0.6
2018-Jul-19 05:30N 48°06' W 004°19'510.4
2018-Jul-19 05:00N 48°08' W 004°27'510.6
2018-Jul-19 04:30N 48°10' W 004°34'4 8.9
2018-Jul-19 04:00N 48°14' W 004°36'0 0.4
2018-Jul-19 03:30N 48°14' W 004°36'1 1.3
2018-Jul-19 03:00N 48°14' W 004°37'3 6.8
2018-Jul-19 02:30N 48°14' W 004°42'1 1.6
2018-Jul-19 02:00N 48°15' W 004°43'0 0.2
2018-Jul-19 01:30N 48°15' W 004°43'0 0.8
2018-Jul-19 01:00N 48°14' W 004°43'2 4.0
2018-Jul-19 00:30N 48°15' W 004°45'2 3.3
2018-Jul-19 00:00N 48°17' W 004°45'1 1.9
2018-Jul-18 23:30N 48°17' W 004°43'2 3.5
2018-Jul-18 23:00N 48°15' W 004°43'2 4.5
2018-Jul-18 22:30N 48°13' W 004°43'1 2.1
2018-Jul-18 22:00N 48°14' W 004°42'4 8.7
2018-Jul-18 21:30N 48°14' W 004°36'2 3.3
2018-Jul-18 21:00N 48°13' W 004°37'2 3.7
2018-Jul-18 20:30N 48°11' W 004°35'3 6.4
2018-Jul-18 20:00N 48°09' W 004°32'5 9.3
2018-Jul-18 19:30N 48°08' W 004°25'4 8.9
2018-Jul-18 19:00N 48°06' W 004°19'0 0.0
2018-Jul-18 05:32N 48°06' W 004°20'0 0.0
2018-Jul-18 05:30N 48°06' W 004°20'3 5.5
2018-Jul-18 05:00N 48°07' W 004°23'510.3
2018-Jul-18 04:31N 48°09' W 004°30'510.4
2018-Jul-18 04:01N 48°11' W 004°38'4 8.9
2018-Jul-18 03:30N 48°14' W 004°43'2 3.7
2018-Jul-18 03:01N 48°13' W 004°41'1 2.6
2018-Jul-18 02:30N 48°12' W 004°40'2 3.8
2018-Jul-18 02:00N 48°13' W 004°38'4 8.2
2018-Jul-18 01:31N 48°10' W 004°35'1 1.2
2018-Jul-18 01:00N 48°10' W 004°35'3 6.8
2018-Jul-18 00:30N 48°12' W 004°39'4 7.5
2018-Jul-18 00:00N 48°14' W 004°45'5 9.6
2018-Jul-17 23:30N 48°16' W 004°50'2 4.1
2018-Jul-17 23:00N 48°17' W 004°48'3 7.0
2018-Jul-17 22:30N 48°15' W 004°44'4 8.8
2018-Jul-17 22:01N 48°14' W 004°38'0 0.6
2018-Jul-17 21:30N 48°14' W 004°37'2 4.4
2018-Jul-17 21:01N 48°12' W 004°36'2 4.3
2018-Jul-17 20:31N 48°10' W 004°35'5 9.6
2018-Jul-17 20:00N 48°08' W 004°28'5 9.1
2018-Jul-17 19:31N 48°07' W 004°22'2 2.7
2018-Jul-17 18:48N 48°06' W 004°20'0 0.0
2018-Jul-17 05:22N 48°06' W 004°20'0 0.9
2018-Jul-17 05:00N 48°06' W 004°19'510.0
2018-Jul-17 04:30N 48°08' W 004°26'4 7.3
2018-Jul-17 04:00N 48°09' W 004°31'1 3.0
2018-Jul-17 03:30N 48°07' W 004°33'2 3.7
2018-Jul-17 03:01N 48°06' W 004°33'2 4.6
2018-Jul-17 02:31N 48°08' W 004°32'5 9.7
2018-Jul-17 02:01N 48°11' W 004°26'1 2.2
2018-Jul-17 01:30N 48°12' W 004°27'5 9.2
2018-Jul-17 01:01N 48°09' W 004°32'3 5.7
2018-Jul-17 00:30N 48°10' W 004°36'4 4.1
2018-Jul-16 23:30N 48°14' W 004°38'0 0.6
2018-Jul-16 23:01N 48°14' W 004°38'2 3.7
2018-Jul-16 22:30N 48°13' W 004°36'2 4.5
2018-Jul-16 22:01N 48°11' W 004°37'4 7.3
2018-Jul-16 21:31N 48°12' W 004°42'2 4.2
2018-Jul-16 21:00N 48°13' W 004°40'510.1
2018-Jul-16 20:30N 48°09' W 004°35'510.0
2018-Jul-16 20:00N 48°08' W 004°27'5 9.3
2018-Jul-16 19:30N 48°07' W 004°21'1 2.0
2018-Jul-16 18:58N 48°06' W 004°20'0 0.0
2018-Jul-16 17:21N 48°06' W 004°20'0 0.0
2018-Jul-16 17:00N 48°06' W 004°20'0 0.0
2018-Jul-16 03:58N 48°06' W 004°20'1 1.1
2018-Jul-16 03:30N 48°06' W 004°19'4 7.7
2018-Jul-16 03:00N 48°08' W 004°25'4 7.8
2018-Jul-16 02:30N 48°08' W 004°30'4 8.0
2018-Jul-16 02:00N 48°10' W 004°36'3 6.9
2018-Jul-16 01:30N 48°12' W 004°40'2 4.0
2018-Jul-16 01:00N 48°13' W 004°43'3 5.5
2018-Jul-16 00:30N 48°11' W 004°40'3 6.2
2018-Jul-16 00:00N 48°14' W 004°41'3 5.5
2018-Jul-15 23:30N 48°15' W 004°45'2 4.0
2018-Jul-15 23:00N 48°17' W 004°45'4 8.2
2018-Jul-15 22:30N 48°13' W 004°43'5 9.1
2018-Jul-15 22:00N 48°10' W 004°38'5 9.5
2018-Jul-15 21:30N 48°08' W 004°31'1 1.7
2018-Jul-15 21:00N 48°08' W 004°30'2 3.1
2018-Jul-15 20:30N 48°07' W 004°28'5 9.9
2018-Jul-15 20:00N 48°07' W 004°21'1 2.8
2018-Jul-15 19:30N 48°06' W 004°19'  
2018-Jul-13 02:33N 48°06' W 004°20'0 0.3
2018-Jul-13 02:30N 48°06' W 004°20'4 8.8
2018-Jul-13 02:00N 48°09' W 004°25'2 4.6
2018-Jul-13 01:30N 48°10' W 004°28'0 0.9
2018-Jul-13 01:01N 48°09' W 004°28'2 5.0
2018-Jul-13 00:31N 48°07' W 004°27'3 6.3
2018-Jul-13 00:00N 48°09' W 004°30'1 1.8
2018-Jul-12 23:31N 48°08' W 004°30'0 0.3
2018-Jul-12 23:00N 48°08' W 004°31'2 3.3
2018-Jul-12 22:30N 48°07' W 004°31'0 0.4
2018-Jul-12 22:01N 48°07' W 004°31'3 5.0
2018-Jul-12 21:31N 48°08' W 004°35'4 7.8
2018-Jul-12 21:01N 48°09' W 004°40'3 5.0
2018-Jul-12 20:30N 48°06' W 004°41'5 9.1
2018-Jul-12 20:00N 48°03' W 004°46'27 8.6
2018-Jul-12 16:53N 47°45' W 004°17'13 9.4
2018-Jul-12 15:31N 47°44' W 003°57'0 8.8
2018-Jul-12 15:30N 47°44' W 003°57'5 9.0
2018-Jul-12 15:00N 47°43' W 003°51'4 9.0
2018-Jul-12 14:31N 47°42' W 003°44'5 9.2
2018-Jul-12 14:00N 47°41' W 003°38'5 9.1
2018-Jul-12 13:30N 47°40' W 003°31'4 8.8
2018-Jul-12 13:01N 47°41' W 003°25'3 6.5
2018-Jul-12 12:30N 47°44' W 003°22'0 0.0
2018-Jul-12 01:36N 47°44' W 003°22'0 0.0
2018-Jul-12 01:30N 47°44' W 003°22'1 2.8
2018-Jul-12 01:00N 47°42' W 003°22'3 5.8
2018-Jul-12 00:30N 47°39' W 003°21'5 9.7
2018-Jul-12 00:00N 47°37' W 003°15'3 5.7
2018-Jul-11 23:30N 47°35' W 003°13'5 9.8
2018-Jul-11 23:00N 47°30' W 003°11'5 9.9
2018-Jul-11 22:30N 47°25' W 003°09'5 9.8
2018-Jul-11 22:00N 47°22' W 003°03'1 2.6
2018-Jul-11 21:30N 47°23' W 003°04'4 8.9
2018-Jul-11 21:00N 47°27' W 003°08'2 4.8
2018-Jul-11 20:30N 47°26' W 003°11'1 2.1
2018-Jul-11 20:00N 47°25' W 003°12'5 9.8
2018-Jul-11 19:30N 47°22' W 003°06'4 8.6
2018-Jul-11 19:00N 47°19' W 003°01'3 5.0
2018-Jul-11 18:30N 47°21' W 003°04'2 4.7
2018-Jul-11 18:00N 47°22' W 003°07'4 8.2
2018-Jul-11 17:30N 47°25' W 003°12'510.4
2018-Jul-11 16:59N 47°29' W 003°15'510.1
2018-Jul-11 16:30N 47°34' W 003°17'4 8.8
2018-Jul-11 16:00N 47°38' W 003°20'510.1
2018-Jul-11 15:30N 47°43' W 003°22'1 1.7
2018-Jul-11 15:00N 47°44' W 003°22'0 0.1
2018-Jul-11 14:30N 47°44' W 003°22'0 0.0
2018-Jul-11 01:32N 47°44' W 003°22'0 0.0
2018-Jul-11 01:31N 47°44' W 003°22'4 8.0
2018-Jul-11 01:00N 47°40' W 003°21'510.5
2018-Jul-11 00:30N 47°35' W 003°16'510.4
2018-Jul-11 00:00N 47°31' W 003°13'5 9.1
2018-Jul-10 23:30N 47°27' W 003°10'4 8.9
2018-Jul-10 23:00N 47°22' W 003°10'0 0.1
2018-Jul-10 22:29N 47°22' W 003°10'1 1.9
2018-Jul-10 22:00N 47°23' W 003°09'2 3.0
2018-Jul-10 21:30N 47°23' W 003°11'2 3.2
2018-Jul-10 21:00N 47°23' W 003°09'1 1.0
2018-Jul-10 20:30N 47°23' W 003°10'3 6.2
2018-Jul-10 20:00N 47°20' W 003°07'2 4.9
2018-Jul-10 19:30N 47°22' W 003°04'2 3.3
2018-Jul-10 19:00N 47°21' W 003°06'0 0.4
2018-Jul-10 18:30N 47°21' W 003°06'5 9.6
2018-Jul-10 18:00N 47°25' W 003°10'5 9.6
2018-Jul-10 17:29N 47°29' W 003°13'4 9.1
2018-Jul-10 17:00N 47°33' W 003°16'510.4
2018-Jul-10 16:30N 47°37' W 003°20'510.0
2018-Jul-10 16:00N 47°42' W 003°22'1 2.9
2018-Jul-10 15:30N 47°44' W 003°22'0 0.1
2018-Jul-10 15:00N 47°44' W 003°22'  
Track history (hours):
 
Tides and Currents Weather Stations Pressure Air Temp Water Temp Dewpoint Dewpoint Depression Visibility Wind Speed Wind Dir Waves Ship Positions

F/V Aerouant Breizh

Last reported at 2018-Jul-20 03:36 UTC. Time now 2018-Jul-22 00:34 UTC.
Position N 48°06' W 004°19'.

Length 15 m.

Type: Fishing. MMSI: 228037600.

Date/timePositionNaut miles runAvg speedWind from/ knotsBaromVisibWave heightAir tempDewpointWater temp
2018-Jul-20 03:36N 48°06' W 004°19'0 2.9
2018-Jul-20 03:31N 48°06' W 004°19'4 7.4
2018-Jul-20 03:01N 48°10' W 004°20'3 6.3
2018-Jul-20 02:31N 48°09' W 004°25'5 9.3
2018-Jul-20 02:01N 48°07' W 004°31'2 3.2
2018-Jul-20 01:30N 48°06' W 004°33'2 4.1
2018-Jul-20 01:00N 48°06' W 004°36'510.2
2018-Jul-20 00:31N 48°11' W 004°35'3 6.8
2018-Jul-20 00:00N 48°13' W 004°38'3 6.9
2018-Jul-19 23:31N 48°14' W 004°43'4 8.5
2018-Jul-19 23:01N 48°16' W 004°49'1 2.2
2018-Jul-19 22:30N 48°17' W 004°50'4 7.4
2018-Jul-19 22:01N 48°15' W 004°45'3 6.9
2018-Jul-19 21:31N 48°14' W 004°40'1 1.2
2018-Jul-19 21:01N 48°14' W 004°39'4 7.0
2018-Jul-19 20:30N 48°11' W 004°36'4 9.0
2018-Jul-19 20:01N 48°09' W 004°30'5 9.1
2018-Jul-19 19:31N 48°08' W 004°24'3 6.5
2018-Jul-19 19:00N 48°06' W 004°19'0 0.0
2018-Jul-19 07:02N 48°06' W 004°19'0 0.0
2018-Jul-19 07:00N 48°06' W 004°19'0 0.0
2018-Jul-19 06:30N 48°06' W 004°19'0 0.0
2018-Jul-19 06:00N 48°06' W 004°19'0 0.6
2018-Jul-19 05:30N 48°06' W 004°19'510.4
2018-Jul-19 05:00N 48°08' W 004°27'510.6
2018-Jul-19 04:30N 48°10' W 004°34'4 8.9
2018-Jul-19 04:00N 48°14' W 004°36'0 0.4
2018-Jul-19 03:30N 48°14' W 004°36'1 1.3
2018-Jul-19 03:00N 48°14' W 004°37'3 6.8
2018-Jul-19 02:30N 48°14' W 004°42'1 1.6
2018-Jul-19 02:00N 48°15' W 004°43'0 0.2
2018-Jul-19 01:30N 48°15' W 004°43'0 0.8
2018-Jul-19 01:00N 48°14' W 004°43'2 4.0
2018-Jul-19 00:30N 48°15' W 004°45'2 3.3
2018-Jul-19 00:00N 48°17' W 004°45'1 1.9
2018-Jul-18 23:30N 48°17' W 004°43'2 3.5
2018-Jul-18 23:00N 48°15' W 004°43'2 4.5
2018-Jul-18 22:30N 48°13' W 004°43'1 2.1
2018-Jul-18 22:00N 48°14' W 004°42'4 8.7
2018-Jul-18 21:30N 48°14' W 004°36'2 3.3
2018-Jul-18 21:00N 48°13' W 004°37'2 3.7
2018-Jul-18 20:30N 48°11' W 004°35'3 6.4
2018-Jul-18 20:00N 48°09' W 004°32'5 9.3
2018-Jul-18 19:30N 48°08' W 004°25'4 8.9
2018-Jul-18 19:00N 48°06' W 004°19'0 0.0
2018-Jul-18 05:32N 48°06' W 004°20'0 0.0
2018-Jul-18 05:30N 48°06' W 004°20'3 5.5
2018-Jul-18 05:00N 48°07' W 004°23'510.3
2018-Jul-18 04:31N 48°09' W 004°30'510.4
2018-Jul-18 04:01N 48°11' W 004°38'4 8.9
2018-Jul-18 03:30N 48°14' W 004°43'2 3.7
2018-Jul-18 03:01N 48°13' W 004°41'1 2.6
2018-Jul-18 02:30N 48°12' W 004°40'2 3.8
2018-Jul-18 02:00N 48°13' W 004°38'4 8.2
2018-Jul-18 01:31N 48°10' W 004°35'1 1.2
2018-Jul-18 01:00N 48°10' W 004°35'3 6.8
2018-Jul-18 00:30N 48°12' W 004°39'4 7.5
2018-Jul-18 00:00N 48°14' W 004°45'5 9.6
2018-Jul-17 23:30N 48°16' W 004°50'2 4.1
2018-Jul-17 23:00N 48°17' W 004°48'3 7.0
2018-Jul-17 22:30N 48°15' W 004°44'4 8.8
2018-Jul-17 22:01N 48°14' W 004°38'0 0.6
2018-Jul-17 21:30N 48°14' W 004°37'2 4.4
2018-Jul-17 21:01N 48°12' W 004°36'2 4.3
2018-Jul-17 20:31N 48°10' W 004°35'5 9.6
2018-Jul-17 20:00N 48°08' W 004°28'5 9.1
2018-Jul-17 19:31N 48°07' W 004°22'2 2.7
2018-Jul-17 18:48N 48°06' W 004°20'0 0.0
2018-Jul-17 05:22N 48°06' W 004°20'0 0.9
2018-Jul-17 05:00N 48°06' W 004°19'510.0
2018-Jul-17 04:30N 48°08' W 004°26'4 7.3
2018-Jul-17 04:00N 48°09' W 004°31'1 3.0
2018-Jul-17 03:30N 48°07' W 004°33'2 3.7
2018-Jul-17 03:01N 48°06' W 004°33'2 4.6
2018-Jul-17 02:31N 48°08' W 004°32'5 9.7
2018-Jul-17 02:01N 48°11' W 004°26'1 2.2
2018-Jul-17 01:30N 48°12' W 004°27'5 9.2
2018-Jul-17 01:01N 48°09' W 004°32'3 5.7
2018-Jul-17 00:30N 48°10' W 004°36'4 4.1
2018-Jul-16 23:30N 48°14' W 004°38'0 0.6
2018-Jul-16 23:01N 48°14' W 004°38'2 3.7
2018-Jul-16 22:30N 48°13' W 004°36'2 4.5
2018-Jul-16 22:01N 48°11' W 004°37'4 7.3
2018-Jul-16 21:31N 48°12' W 004°42'2 4.2
2018-Jul-16 21:00N 48°13' W 004°40'510.1
2018-Jul-16 20:30N 48°09' W 004°35'510.0
2018-Jul-16 20:00N 48°08' W 004°27'5 9.3
2018-Jul-16 19:30N 48°07' W 004°21'1 2.0
2018-Jul-16 18:58N 48°06' W 004°20'0 0.0
2018-Jul-16 17:21N 48°06' W 004°20'0 0.0
2018-Jul-16 17:00N 48°06' W 004°20'0 0.0
2018-Jul-16 03:58N 48°06' W 004°20'1 1.1
2018-Jul-16 03:30N 48°06' W 004°19'4 7.7
2018-Jul-16 03:00N 48°08' W 004°25'4 7.8
2018-Jul-16 02:30N 48°08' W 004°30'4 8.0
2018-Jul-16 02:00N 48°10' W 004°36'3 6.9
2018-Jul-16 01:30N 48°12' W 004°40'2 4.0
2018-Jul-16 01:00N 48°13' W 004°43'3 5.5
2018-Jul-16 00:30N 48°11' W 004°40'3 6.2
2018-Jul-16 00:00N 48°14' W 004°41'3 5.5
2018-Jul-15 23:30N 48°15' W 004°45'2 4.0
2018-Jul-15 23:00N 48°17' W 004°45'4 8.2
2018-Jul-15 22:30N 48°13' W 004°43'5 9.1
2018-Jul-15 22:00N 48°10' W 004°38'5 9.5
2018-Jul-15 21:30N 48°08' W 004°31'1 1.7
2018-Jul-15 21:00N 48°08' W 004°30'2 3.1
2018-Jul-15 20:30N 48°07' W 004°28'5 9.9
2018-Jul-15 20:00N 48°07' W 004°21'1 2.8
2018-Jul-15 19:30N 48°06' W 004°19'  
2018-Jul-13 02:33N 48°06' W 004°20'0 0.3
2018-Jul-13 02:30N 48°06' W 004°20'4 8.8
2018-Jul-13 02:00N 48°09' W 004°25'2 4.6
2018-Jul-13 01:30N 48°10' W 004°28'0 0.9
2018-Jul-13 01:01N 48°09' W 004°28'2 5.0
2018-Jul-13 00:31N 48°07' W 004°27'3 6.3
2018-Jul-13 00:00N 48°09' W 004°30'1 1.8
2018-Jul-12 23:31N 48°08' W 004°30'0 0.3
2018-Jul-12 23:00N 48°08' W 004°31'2 3.3
2018-Jul-12 22:30N 48°07' W 004°31'0 0.4
2018-Jul-12 22:01N 48°07' W 004°31'3 5.0
2018-Jul-12 21:31N 48°08' W 004°35'4 7.8
2018-Jul-12 21:01N 48°09' W 004°40'3 5.0
2018-Jul-12 20:30N 48°06' W 004°41'5 9.1
2018-Jul-12 20:00N 48°03' W 004°46'27 8.6
2018-Jul-12 16:53N 47°45' W 004°17'13 9.4
2018-Jul-12 15:31N 47°44' W 003°57'0 8.8
2018-Jul-12 15:30N 47°44' W 003°57'5 9.0
2018-Jul-12 15:00N 47°43' W 003°51'4 9.0
2018-Jul-12 14:31N 47°42' W 003°44'5 9.2
2018-Jul-12 14:00N 47°41' W 003°38'5 9.1
2018-Jul-12 13:30N 47°40' W 003°31'4 8.8
2018-Jul-12 13:01N 47°41' W 003°25'3 6.5
2018-Jul-12 12:30N 47°44' W 003°22'0 0.0
2018-Jul-12 01:36N 47°44' W 003°22'0 0.0
2018-Jul-12 01:30N 47°44' W 003°22'1 2.8
2018-Jul-12 01:00N 47°42' W 003°22'3 5.8
2018-Jul-12 00:30N 47°39' W 003°21'5 9.7
2018-Jul-12 00:00N 47°37' W 003°15'3 5.7
2018-Jul-11 23:30N 47°35' W 003°13'5 9.8
2018-Jul-11 23:00N 47°30' W 003°11'5 9.9
2018-Jul-11 22:30N 47°25' W 003°09'5 9.8
2018-Jul-11 22:00N 47°22' W 003°03'1 2.6
2018-Jul-11 21:30N 47°23' W 003°04'4 8.9
2018-Jul-11 21:00N 47°27' W 003°08'2 4.8
2018-Jul-11 20:30N 47°26' W 003°11'1 2.1
2018-Jul-11 20:00N 47°25' W 003°12'5 9.8
2018-Jul-11 19:30N 47°22' W 003°06'4 8.6
2018-Jul-11 19:00N 47°19' W 003°01'3 5.0
2018-Jul-11 18:30N 47°21' W 003°04'2 4.7
2018-Jul-11 18:00N 47°22' W 003°07'4 8.2
2018-Jul-11 17:30N 47°25' W 003°12'510.4
2018-Jul-11 16:59N 47°29' W 003°15'510.1
2018-Jul-11 16:30N 47°34' W 003°17'4 8.8
2018-Jul-11 16:00N 47°38' W 003°20'510.1
2018-Jul-11 15:30N 47°43' W 003°22'1 1.7
2018-Jul-11 15:00N 47°44' W 003°22'0 0.1
2018-Jul-11 14:30N 47°44' W 003°22'0 0.0
2018-Jul-11 01:32N 47°44' W 003°22'0 0.0
2018-Jul-11 01:31N 47°44' W 003°22'4 8.0
2018-Jul-11 01:00N 47°40' W 003°21'510.5
2018-Jul-11 00:30N 47°35' W 003°16'510.4
2018-Jul-11 00:00N 47°31' W 003°13'5 9.1
2018-Jul-10 23:30N 47°27' W 003°10'4 8.9
2018-Jul-10 23:00N 47°22' W 003°10'0 0.1
2018-Jul-10 22:29N 47°22' W 003°10'1 1.9
2018-Jul-10 22:00N 47°23' W 003°09'2 3.0
2018-Jul-10 21:30N 47°23' W 003°11'2 3.2
2018-Jul-10 21:00N 47°23' W 003°09'1 1.0
2018-Jul-10 20:30N 47°23' W 003°10'3 6.2
2018-Jul-10 20:00N 47°20' W 003°07'2 4.9
2018-Jul-10 19:30N 47°22' W 003°04'2 3.3
2018-Jul-10 19:00N 47°21' W 003°06'0 0.4
2018-Jul-10 18:30N 47°21' W 003°06'5 9.6
2018-Jul-10 18:00N 47°25' W 003°10'5 9.6
2018-Jul-10 17:29N 47°29' W 003°13'4 9.1
2018-Jul-10 17:00N 47°33' W 003°16'510.4
2018-Jul-10 16:30N 47°37' W 003°20'510.0
2018-Jul-10 16:00N 47°42' W 003°22'1 2.9
2018-Jul-10 15:30N 47°44' W 003°22'0 0.1
2018-Jul-10 15:00N 47°44' W 003°22'  

Dump ship's entire track history